createdAt,value
2018-03-20T00:00:32.642Z,97.1
2018-03-20T00:01:33.442Z,97.7
2018-03-20T00:02:34.172Z,97.5
2018-03-20T00:03:34.898Z,97.8
2018-03-20T00:04:35.651Z,97.2
2018-03-20T00:05:36.400Z,97.2
2018-03-20T00:06:37.125Z,98.1
2018-03-20T00:07:37.896Z,98.0
2018-03-20T00:08:38.636Z,98.0
2018-03-20T00:09:39.977Z,98.0
2018-03-20T00:10:40.952Z,98.2
2018-03-20T00:11:41.679Z,98.1
2018-03-20T00:12:42.410Z,97.4
2018-03-20T00:13:43.126Z,98.1
2018-03-20T00:14:43.853Z,98.9
2018-03-20T00:15:44.571Z,98.0
2018-03-20T00:16:45.280Z,98.0
2018-03-20T00:17:45.999Z,97.1
2018-03-20T00:18:46.732Z,97.1
2018-03-20T00:19:47.446Z,97.1
2018-03-20T00:20:48.242Z,97.3
2018-03-20T00:21:48.995Z,97.3
2018-03-20T00:22:49.716Z,97.3
2018-03-20T00:23:50.514Z,97.6
2018-03-20T00:24:51.234Z,97.7
2018-03-20T00:25:51.942Z,98.0
2018-03-20T00:26:52.661Z,97.9
2018-03-20T00:27:53.384Z,97.9
2018-03-20T00:28:54.097Z,98.3
2018-03-20T00:29:54.807Z,98.2
2018-03-20T00:30:55.564Z,97.6
2018-03-20T00:31:56.363Z,97.8
2018-03-20T00:32:57.154Z,97.5
2018-03-20T00:33:57.872Z,97.2
2018-03-20T00:34:58.580Z,96.9
2018-03-20T00:35:59.343Z,96.9
2018-03-20T00:37:00.067Z,96.6
2018-03-20T00:38:00.836Z,96.6
2018-03-20T00:39:01.619Z,97.1
2018-03-20T00:40:02.331Z,96.3
2018-03-20T00:41:03.080Z,96.4
2018-03-20T00:42:03.862Z,96.3
2018-03-20T00:43:04.584Z,95.5
2018-03-20T00:44:05.361Z,95.3
2018-03-20T00:45:06.154Z,95.7
2018-03-20T00:46:06.928Z,95.8
2018-03-20T00:47:07.635Z,95.8
2018-03-20T00:48:08.349Z,95.7
2018-03-20T00:49:09.124Z,95.7
2018-03-20T00:50:09.913Z,95.8
2018-03-20T00:51:10.665Z,96.2
2018-03-20T00:52:11.391Z,96.0
2018-03-20T00:53:12.152Z,95.9
2018-03-20T00:54:12.865Z,96.4
2018-03-20T00:55:13.633Z,95.5
2018-03-20T00:56:14.343Z,96.1
2018-03-20T00:57:15.064Z,95.4
2018-03-20T00:58:15.901Z,96.0
2018-03-20T00:59:16.714Z,95.1
2018-03-20T01:00:17.497Z,95.1
2018-03-20T01:01:18.209Z,95.1
2018-03-20T01:02:18.942Z,95.9
2018-03-20T01:03:19.674Z,95.4
2018-03-20T01:04:20.464Z,95.4
2018-03-20T01:05:21.176Z,95.9
2018-03-20T01:06:21.954Z,95.9
2018-03-20T01:07:22.683Z,95.0
2018-03-20T01:08:23.451Z,94.2
2018-03-20T01:09:24.224Z,93.2
2018-03-20T01:10:25.013Z,92.4
2018-03-20T01:11:25.743Z,92.1
2018-03-20T01:12:26.512Z,91.5
2018-03-20T01:13:27.293Z,91.8
2018-03-20T01:14:28.003Z,91.5
2018-03-20T01:15:28.715Z,91.3
2018-03-20T01:16:29.431Z,91.4
2018-03-20T01:17:30.161Z,91.7
2018-03-20T01:18:30.863Z,92.0
2018-03-20T01:19:31.562Z,92.3
2018-03-20T01:20:32.274Z,92.4
2018-03-20T01:21:32.980Z,92.0
2018-03-20T01:22:33.712Z,92.5
2018-03-20T01:23:34.460Z,92.7
2018-03-20T01:24:35.176Z,92.4
2018-03-20T01:25:35.929Z,92.6
2018-03-20T01:26:36.641Z,92.4
2018-03-20T01:27:37.357Z,92.3
2018-03-20T01:28:38.082Z,92.1
2018-03-20T01:29:38.857Z,91.9
2018-03-20T01:30:39.570Z,92.3
2018-03-20T01:31:40.286Z,92.1
2018-03-20T01:32:41.056Z,91.9
2018-03-20T01:33:41.773Z,91.4
2018-03-20T01:34:42.487Z,91.0
2018-03-20T01:35:43.200Z,90.6
2018-03-20T01:36:43.944Z,90.7
2018-03-20T01:37:44.729Z,90.3
2018-03-20T01:38:45.446Z,90.2
2018-03-20T01:39:46.175Z,89.6
2018-03-20T01:40:46.977Z,89.8
2018-03-20T01:41:47.773Z,89.6
2018-03-20T01:42:48.480Z,89.7
2018-03-20T01:43:49.206Z,90.1
2018-03-20T01:44:50.014Z,88.9
2018-03-20T01:45:50.726Z,88.9
2018-03-20T01:46:51.450Z,89.2
2018-03-20T01:47:52.210Z,89.2
2018-03-20T01:48:52.934Z,89.0
2018-03-20T01:49:53.709Z,88.8
2018-03-20T01:50:54.420Z,89.8
2018-03-20T01:51:55.147Z,89.8
2018-03-20T01:52:55.952Z,89.6
2018-03-20T01:53:56.673Z,88.8
2018-03-20T01:54:57.492Z,89.2
2018-03-20T01:55:58.205Z,89.0
2018-03-20T01:56:58.986Z,88.8
2018-03-20T01:57:59.692Z,89.7
2018-03-20T01:59:00.407Z,90.2
2018-03-20T02:00:01.137Z,89.6
2018-03-20T02:01:01.856Z,89.6
2018-03-20T02:02:02.539Z,89.8
2018-03-20T02:03:03.251Z,89.9
2018-03-20T02:04:03.974Z,90.2
2018-03-20T02:05:04.689Z,89.7
2018-03-20T02:06:05.462Z,89.9
2018-03-20T02:07:06.200Z,90.0
2018-03-20T02:08:06.925Z,89.9
2018-03-20T02:09:07.710Z,90.5
2018-03-20T02:10:08.431Z,90.1
2018-03-20T02:11:09.150Z,90.2
2018-03-20T02:12:09.856Z,90.7
2018-03-20T02:13:10.663Z,90.3
2018-03-20T02:14:11.422Z,90.6
2018-03-20T02:15:12.138Z,90.2
2018-03-20T02:16:12.865Z,90.5
2018-03-20T02:17:13.623Z,90.4
2018-03-20T02:18:14.399Z,91.2
2018-03-20T02:19:15.100Z,91.1
2018-03-20T02:20:15.812Z,91.2
2018-03-20T02:21:16.582Z,91.2
2018-03-20T02:22:17.361Z,91.9
2018-03-20T02:23:18.076Z,91.8
2018-03-20T02:24:18.852Z,91.7
2018-03-20T02:25:19.611Z,91.5
2018-03-20T02:26:20.403Z,91.6
2018-03-20T02:27:21.130Z,91.7
2018-03-20T02:28:21.843Z,92.0
2018-03-20T02:29:22.623Z,92.0
2018-03-20T02:30:23.343Z,92.9
2018-03-20T02:31:24.131Z,94.3
2018-03-20T02:32:24.842Z,95.3
2018-03-20T02:33:25.566Z,96.0
2018-03-20T02:34:26.324Z,96.3
2018-03-20T02:35:27.033Z,96.4
2018-03-20T02:36:27.738Z,96.6
2018-03-20T02:37:28.530Z,95.8
2018-03-20T02:38:29.325Z,95.9
2018-03-20T02:39:30.146Z,95.3
2018-03-20T02:40:30.889Z,95.2
2018-03-20T02:41:31.653Z,95.4
2018-03-20T02:42:32.424Z,95.8
2018-03-20T02:43:33.175Z,95.6
2018-03-20T02:44:33.888Z,95.7
2018-03-20T02:45:34.591Z,95.9
2018-03-20T02:46:35.324Z,97.2
2018-03-20T02:47:36.061Z,97.1
2018-03-20T02:48:36.770Z,97.1
2018-03-20T02:49:37.482Z,97.5
2018-03-20T02:50:38.206Z,97.8
2018-03-20T02:51:38.994Z,98.3
2018-03-20T02:52:39.772Z,98.7
2018-03-20T02:53:40.473Z,99.0
2018-03-20T02:54:41.187Z,100.0
2018-03-20T02:55:41.903Z,100.0
2018-03-20T02:56:42.625Z,100.0
2018-03-20T02:57:43.406Z,100.0
2018-03-20T02:58:44.152Z,100.0
2018-03-20T02:59:44.884Z,100.0
2018-03-20T03:00:45.597Z,100.0
2018-03-20T03:01:46.304Z,100.0
2018-03-20T03:02:47.066Z,100.0
2018-03-20T03:03:47.785Z,100.0
2018-03-20T03:04:48.594Z,100.0
2018-03-20T03:05:49.316Z,100.0
2018-03-20T03:06:50.083Z,100.0
2018-03-20T03:07:50.792Z,100.0
2018-03-20T03:08:51.515Z,100.0
2018-03-20T03:09:52.243Z,100.0
2018-03-20T03:10:52.985Z,100.0
2018-03-20T03:11:53.769Z,100.0
2018-03-20T03:12:54.492Z,100.0
2018-03-20T03:13:55.193Z,100.0
2018-03-20T03:14:55.934Z,100.0
2018-03-20T03:15:56.763Z,100.0
2018-03-20T03:16:57.551Z,100.0
2018-03-20T03:17:58.274Z,100.0
2018-03-20T03:18:58.979Z,100.0
2018-03-20T03:19:59.691Z,100.0
2018-03-20T03:21:00.425Z,100.0
2018-03-20T03:22:01.124Z,100.0
2018-03-20T03:23:01.840Z,100.0
2018-03-20T03:24:02.555Z,100.0
2018-03-20T03:25:03.283Z,100.0
2018-03-20T03:26:04.057Z,100.0
2018-03-20T03:27:04.780Z,100.0
2018-03-20T03:28:05.500Z,100.0
2018-03-20T03:29:06.226Z,100.0
2018-03-20T03:30:06.932Z,100.0
2018-03-20T03:31:07.643Z,100.0
2018-03-20T03:32:08.364Z,100.0
2018-03-20T03:33:09.078Z,100.0
2018-03-20T03:34:09.813Z,100.0
2018-03-20T03:35:10.641Z,100.0
2018-03-20T03:36:11.301Z,100.0
2018-03-20T03:37:12.005Z,100.0
2018-03-20T03:38:12.789Z,100.0
2018-03-20T03:39:13.512Z,100.0
2018-03-20T03:40:14.270Z,100.0
2018-03-20T03:41:15.042Z,100.0
2018-03-20T03:42:15.772Z,100.0
2018-03-20T03:43:16.515Z,100.0
2018-03-20T03:44:17.221Z,100.0
2018-03-20T03:45:17.940Z,100.0
2018-03-20T03:46:18.727Z,100.0
2018-03-20T03:47:19.481Z,100.0
2018-03-20T03:48:20.209Z,100.0
2018-03-20T03:49:20.918Z,100.0
2018-03-20T03:50:21.641Z,100.0
2018-03-20T03:51:22.364Z,100.0
2018-03-20T03:52:23.074Z,100.0
2018-03-20T03:53:23.795Z,100.0
2018-03-20T03:54:24.596Z,100.0
2018-03-20T03:55:25.316Z,100.0
2018-03-20T03:56:26.113Z,100.0
2018-03-20T03:57:26.833Z,100.0
2018-03-20T03:58:27.620Z,100.0
2018-03-20T03:59:28.363Z,100.0
2018-03-20T04:00:29.110Z,100.0
2018-03-20T04:01:29.831Z,100.0
2018-03-20T04:02:30.552Z,100.0
2018-03-20T04:03:31.333Z,100.0
2018-03-20T04:04:32.057Z,100.0
2018-03-20T04:05:32.773Z,100.0
2018-03-20T04:06:33.506Z,100.0
2018-03-20T04:07:34.237Z,100.0
2018-03-20T04:08:35.037Z,100.0
2018-03-20T04:09:35.862Z,100.0
2018-03-20T04:10:36.631Z,100.0
2018-03-20T04:11:37.369Z,100.0
2018-03-20T04:12:38.105Z,100.0
2018-03-20T04:13:38.828Z,100.0
2018-03-20T04:14:39.592Z,100.0
2018-03-20T04:15:40.322Z,100.0
2018-03-20T04:16:41.061Z,100.0
2018-03-20T04:17:41.772Z,100.0
2018-03-20T04:18:42.583Z,100.0
2018-03-20T04:19:43.302Z,100.0
2018-03-20T04:20:44.030Z,100.0
2018-03-20T04:21:44.756Z,100.0
2018-03-20T04:22:45.485Z,100.0
2018-03-20T04:23:46.293Z,100.0
2018-03-20T04:24:47.004Z,100.0
2018-03-20T04:25:47.805Z,100.0
2018-03-20T04:26:48.521Z,100.0
2018-03-20T04:27:49.211Z,100.0
2018-03-20T04:28:49.947Z,100.0
2018-03-20T04:29:50.691Z,100.0
2018-03-20T04:30:51.414Z,100.0
2018-03-20T04:31:52.134Z,100.0
2018-03-20T04:32:52.844Z,100.0
2018-03-20T04:33:53.571Z,100.0
2018-03-20T04:34:54.290Z,100.0
2018-03-20T04:35:55.011Z,100.0
2018-03-20T04:36:55.731Z,100.0
2018-03-20T04:37:56.464Z,100.0
2018-03-20T04:38:57.190Z,100.0
2018-03-20T04:39:57.969Z,100.0
2018-03-20T04:40:58.724Z,100.0
2018-03-20T04:41:59.482Z,100.0
2018-03-20T04:43:00.197Z,100.0
2018-03-20T04:44:00.925Z,100.0
2018-03-20T04:45:01.631Z,100.0
2018-03-20T04:46:02.334Z,100.0
2018-03-20T04:47:03.113Z,100.0
2018-03-20T04:48:03.902Z,100.0
2018-03-20T04:49:04.631Z,100.0
2018-03-20T04:50:05.346Z,100.0
2018-03-20T04:51:06.080Z,100.0
2018-03-20T04:52:06.903Z,100.0
2018-03-20T04:53:07.634Z,100.0
2018-03-20T04:54:08.342Z,100.0
2018-03-20T04:55:09.060Z,100.0
2018-03-20T04:56:09.781Z,100.0
2018-03-20T04:57:10.491Z,100.0
2018-03-20T04:58:11.289Z,100.0
2018-03-20T04:59:12.109Z,100.0
2018-03-20T05:00:12.808Z,100.0
2018-03-20T05:01:13.551Z,100.0
2018-03-20T05:02:14.320Z,100.0
2018-03-20T05:03:15.056Z,100.0
2018-03-20T05:04:15.783Z,100.0
2018-03-20T05:05:16.550Z,100.0
2018-03-20T05:06:17.280Z,100.0
2018-03-20T05:07:18.040Z,100.0
2018-03-20T05:08:18.772Z,100.0
2018-03-20T05:09:19.491Z,100.0
2018-03-20T05:10:20.208Z,100.0
2018-03-20T05:11:20.921Z,100.0
2018-03-20T05:12:21.624Z,100.0
2018-03-20T05:13:22.361Z,100.0
2018-03-20T05:14:23.152Z,100.0
2018-03-20T05:15:23.928Z,100.0
2018-03-20T05:16:24.662Z,100.0
2018-03-20T05:17:25.380Z,100.0
2018-03-20T05:18:26.204Z,100.0
2018-03-20T05:19:26.995Z,100.0
2018-03-20T05:20:27.762Z,100.0
2018-03-20T05:21:28.491Z,100.0
2018-03-20T05:22:29.210Z,100.0
2018-03-20T05:23:29.936Z,100.0
2018-03-20T05:24:30.711Z,100.0
2018-03-20T05:25:31.426Z,100.0
2018-03-20T05:26:32.220Z,100.0
2018-03-20T05:27:32.942Z,100.0
2018-03-20T05:28:33.671Z,100.0
2018-03-20T05:29:34.390Z,100.0
2018-03-20T05:30:35.116Z,100.0
2018-03-20T05:31:35.898Z,100.0
2018-03-20T05:32:36.624Z,100.0
2018-03-20T05:33:37.414Z,100.0
2018-03-20T05:34:38.136Z,100.0
2018-03-20T05:35:38.893Z,100.0
2018-03-20T05:36:39.603Z,100.0
2018-03-20T05:37:40.324Z,100.0
2018-03-20T05:38:41.048Z,100.0
2018-03-20T05:39:41.884Z,100.0
2018-03-20T05:40:42.683Z,100.0
2018-03-20T05:41:43.403Z,100.0
2018-03-20T05:42:44.129Z,100.0
2018-03-20T05:43:44.874Z,100.0
2018-03-20T05:44:45.707Z,100.0
2018-03-20T05:45:46.426Z,100.0
2018-03-20T05:46:47.152Z,100.0
2018-03-20T05:47:47.944Z,100.0
2018-03-20T05:48:48.684Z,100.0
2018-03-20T05:49:49.463Z,100.0
2018-03-20T05:50:50.239Z,100.0
2018-03-20T05:51:50.962Z,100.0
2018-03-20T05:52:51.673Z,100.0
2018-03-20T05:53:52.430Z,100.0
2018-03-20T05:54:53.149Z,100.0
2018-03-20T05:55:53.978Z,100.0
2018-03-20T05:56:54.651Z,100.0
2018-03-20T05:57:55.377Z,100.0
2018-03-20T05:58:56.127Z,100.0
2018-03-20T05:59:56.854Z,100.0
2018-03-20T06:00:57.622Z,100.0
2018-03-20T06:01:58.361Z,100.0
2018-03-20T06:02:59.095Z,100.0
2018-03-20T06:03:59.901Z,100.0
2018-03-20T06:05:00.628Z,100.0
2018-03-20T06:06:01.346Z,100.0
2018-03-20T06:07:02.159Z,100.0
2018-03-20T06:08:02.929Z,100.0
2018-03-20T06:09:03.656Z,100.0
2018-03-20T06:10:04.473Z,100.0
2018-03-20T06:11:05.231Z,100.0
2018-03-20T06:12:05.968Z,100.0
2018-03-20T06:13:06.735Z,100.0
2018-03-20T06:14:07.535Z,100.0
2018-03-20T06:15:08.254Z,100.0
2018-03-20T06:16:08.970Z,100.0
2018-03-20T06:17:09.695Z,100.0
2018-03-20T06:18:10.498Z,100.0
2018-03-20T06:19:11.286Z,100.0
2018-03-20T06:20:12.077Z,100.0
2018-03-20T06:21:12.813Z,100.0
2018-03-20T06:22:13.634Z,100.0
2018-03-20T06:23:14.345Z,100.0
2018-03-20T06:24:15.061Z,100.0
2018-03-20T06:25:15.792Z,100.0
2018-03-20T06:26:16.586Z,100.0
2018-03-20T06:27:17.428Z,100.0
2018-03-20T06:28:18.127Z,100.0
2018-03-20T06:29:18.843Z,100.0
2018-03-20T06:30:19.612Z,100.0
2018-03-20T06:31:20.333Z,100.0
2018-03-20T06:32:21.050Z,100.0
2018-03-20T06:33:21.872Z,100.0
2018-03-20T06:34:22.571Z,100.0
2018-03-20T06:35:23.299Z,100.0
2018-03-20T06:36:23.979Z,100.0
2018-03-20T06:37:24.700Z,100.0
2018-03-20T06:38:25.431Z,100.0
2018-03-20T06:39:26.197Z,100.0
2018-03-20T06:40:26.899Z,100.0
2018-03-20T06:41:27.621Z,100.0
2018-03-20T06:42:28.460Z,100.0
2018-03-20T06:43:29.137Z,100.0
2018-03-20T06:44:29.923Z,100.0
2018-03-20T06:45:30.686Z,100.0
2018-03-20T06:46:31.409Z,100.0
2018-03-20T06:47:32.121Z,100.0
2018-03-20T06:48:32.831Z,100.0
2018-03-20T06:49:33.592Z,100.0
2018-03-20T06:50:34.347Z,100.0
2018-03-20T06:51:35.105Z,100.0
2018-03-20T06:52:35.889Z,100.0
2018-03-20T06:53:36.632Z,100.0
2018-03-20T06:54:37.364Z,100.0
2018-03-20T06:55:38.142Z,100.0
2018-03-20T06:56:38.922Z,100.0
2018-03-20T06:57:39.644Z,100.0
2018-03-20T06:58:40.439Z,100.0
2018-03-20T06:59:41.209Z,100.0
2018-03-20T07:00:41.939Z,100.0
2018-03-20T07:01:42.671Z,100.0
2018-03-20T07:02:43.451Z,100.0
2018-03-20T07:03:44.216Z,100.0
2018-03-20T07:04:44.937Z,100.0
2018-03-20T07:05:45.662Z,100.0
2018-03-20T07:06:46.382Z,100.0
2018-03-20T07:07:47.161Z,100.0
2018-03-20T07:08:47.902Z,100.0
2018-03-20T07:09:48.642Z,100.0
2018-03-20T07:10:49.363Z,100.0
2018-03-20T07:11:50.120Z,100.0
2018-03-20T07:12:50.841Z,100.0
2018-03-20T07:13:51.559Z,100.0
2018-03-20T07:14:52.251Z,100.0
2018-03-20T07:15:53.020Z,100.0
2018-03-20T07:16:53.731Z,100.0
2018-03-20T07:17:54.452Z,100.0
2018-03-20T07:18:55.172Z,100.0
2018-03-20T07:19:55.920Z,100.0
2018-03-20T07:20:56.623Z,100.0
2018-03-20T07:21:57.358Z,100.0
2018-03-20T07:22:58.139Z,100.0
2018-03-20T07:23:58.873Z,100.0
2018-03-20T07:24:59.664Z,100.0
2018-03-20T07:26:00.442Z,100.0
2018-03-20T07:27:01.140Z,100.0
2018-03-20T07:28:01.854Z,100.0
2018-03-20T07:29:02.554Z,100.0
2018-03-20T07:30:03.389Z,100.0
2018-03-20T07:31:04.122Z,100.0
2018-03-20T07:32:04.833Z,100.0
2018-03-20T07:33:05.550Z,100.0
2018-03-20T07:34:06.290Z,100.0
2018-03-20T07:35:07.008Z,100.0
2018-03-20T07:36:07.743Z,100.0
2018-03-20T07:37:08.481Z,100.0
2018-03-20T07:38:09.221Z,100.0
2018-03-20T07:39:09.955Z,100.0
2018-03-20T07:40:10.678Z,100.0
2018-03-20T07:41:11.400Z,100.0
2018-03-20T07:42:12.180Z,100.0
2018-03-20T07:43:12.901Z,100.0
2018-03-20T07:44:13.682Z,100.0
2018-03-20T07:45:14.408Z,100.0
2018-03-20T07:46:15.174Z,100.0
2018-03-20T07:47:15.884Z,100.0
2018-03-20T07:48:16.611Z,100.0
2018-03-20T07:49:17.381Z,100.0
2018-03-20T07:50:18.104Z,100.0
2018-03-20T07:51:18.821Z,100.0
2018-03-20T07:52:19.566Z,100.0
2018-03-20T07:53:20.315Z,100.0
2018-03-20T07:54:21.039Z,100.0
2018-03-20T07:55:21.784Z,100.0
2018-03-20T07:56:22.550Z,100.0
2018-03-20T07:57:23.264Z,100.0
2018-03-20T07:58:23.989Z,100.0
2018-03-20T07:59:24.705Z,100.0
2018-03-20T08:00:25.428Z,100.0
2018-03-20T08:01:26.144Z,100.0
2018-03-20T08:02:26.878Z,100.0
2018-03-20T08:03:27.634Z,100.0
2018-03-20T08:04:28.391Z,100.0
2018-03-20T08:05:29.116Z,100.0
2018-03-20T08:06:29.884Z,100.0
2018-03-20T08:07:30.602Z,100.0
2018-03-20T08:08:31.322Z,100.0
2018-03-20T08:09:32.089Z,100.0
2018-03-20T08:10:32.814Z,100.0
2018-03-20T08:11:33.608Z,100.0
2018-03-20T08:12:34.330Z,100.0
2018-03-20T08:13:35.055Z,100.0
2018-03-20T08:14:35.844Z,100.0
2018-03-20T08:15:36.594Z,100.0
2018-03-20T08:16:37.310Z,100.0
2018-03-20T08:17:38.034Z,100.0
2018-03-20T08:18:38.764Z,100.0
2018-03-20T08:19:39.542Z,100.0
2018-03-20T08:20:40.310Z,100.0
2018-03-20T08:21:41.070Z,100.0
2018-03-20T08:22:41.850Z,100.0
2018-03-20T08:23:42.592Z,100.0
2018-03-20T08:24:43.325Z,100.0
2018-03-20T08:25:44.049Z,100.0
2018-03-20T08:26:44.774Z,100.0
2018-03-20T08:27:45.562Z,100.0
2018-03-20T08:28:46.292Z,100.0
2018-03-20T08:29:46.990Z,100.0
2018-03-20T08:30:47.712Z,100.0
2018-03-20T08:31:48.501Z,100.0
2018-03-20T08:32:49.245Z,100.0
2018-03-20T08:33:49.959Z,100.0
2018-03-20T08:34:50.689Z,100.0
2018-03-20T08:35:51.431Z,100.0
2018-03-20T08:36:52.164Z,100.0
2018-03-20T08:37:52.902Z,100.0
2018-03-20T08:38:53.684Z,100.0
2018-03-20T08:39:54.423Z,100.0
2018-03-20T08:40:55.147Z,100.0
2018-03-20T08:41:55.920Z,100.0
2018-03-20T08:42:56.660Z,100.0
2018-03-20T08:43:57.467Z,100.0
2018-03-20T08:44:58.242Z,100.0
2018-03-20T08:45:58.962Z,100.0
2018-03-20T08:46:59.773Z,100.0
2018-03-20T08:48:00.500Z,100.0
2018-03-20T08:49:01.226Z,100.0
2018-03-20T08:50:02.062Z,100.0
2018-03-20T08:51:02.743Z,100.0
2018-03-20T08:52:03.530Z,100.0
2018-03-20T08:53:04.263Z,99.8
2018-03-20T08:54:05.037Z,98.6
2018-03-20T08:55:05.762Z,97.7
2018-03-20T08:56:06.504Z,97.4
2018-03-20T08:57:07.261Z,96.6
2018-03-20T08:58:08.005Z,97.4
2018-03-20T08:59:08.746Z,97.1
2018-03-20T09:00:09.482Z,97.3
2018-03-20T09:01:10.253Z,95.6
2018-03-20T09:02:10.978Z,95.0
2018-03-20T09:03:11.769Z,95.3
2018-03-20T09:04:12.533Z,95.7
2018-03-20T09:05:13.262Z,96.4
2018-03-20T09:06:14.030Z,95.7
2018-03-20T09:07:14.791Z,94.5
2018-03-20T09:08:15.550Z,94.3
2018-03-20T09:09:16.275Z,95.1
2018-03-20T09:10:17.002Z,95.9
2018-03-20T09:11:17.795Z,97.0
2018-03-20T09:12:18.500Z,96.5
2018-03-20T09:13:19.231Z,96.0
2018-03-20T09:14:19.939Z,95.5
2018-03-20T09:15:20.689Z,94.4
2018-03-20T09:16:21.473Z,93.6
2018-03-20T09:17:22.192Z,92.0
2018-03-20T09:18:22.974Z,91.9
2018-03-20T09:19:23.769Z,91.4
2018-03-20T09:20:24.491Z,91.9
2018-03-20T09:21:25.216Z,90.5
2018-03-20T09:22:26.029Z,89.8
2018-03-20T09:23:26.763Z,89.2
2018-03-20T09:24:27.600Z,88.7
2018-03-20T09:25:28.270Z,89.7
2018-03-20T09:26:29.056Z,89.7
2018-03-20T09:27:29.792Z,89.2
2018-03-20T09:28:32.025Z,88.0
2018-03-20T09:29:33.324Z,87.8
2018-03-20T09:30:35.079Z,87.8
2018-03-20T09:31:35.743Z,88.9
2018-03-20T09:32:36.471Z,89.2
2018-03-20T09:33:37.216Z,90.0
2018-03-20T09:34:38.010Z,88.9
2018-03-20T09:35:38.736Z,87.3
2018-03-20T09:36:39.538Z,86.6
2018-03-20T09:37:40.325Z,84.6
2018-03-20T09:38:41.076Z,84.8
2018-03-20T09:39:41.842Z,83.5
2018-03-20T09:40:42.569Z,81.9
2018-03-20T09:41:43.306Z,81.6
2018-03-20T09:42:45.738Z,81.9
2018-03-20T09:43:45.874Z,82.5
2018-03-20T09:44:46.554Z,81.2
2018-03-20T09:45:47.279Z,79.0
2018-03-20T09:46:48.069Z,77.7
2018-03-20T09:47:48.804Z,78.1
2018-03-20T09:48:49.622Z,76.5
2018-03-20T09:49:50.413Z,75.8
2018-03-20T09:50:51.282Z,75.2
2018-03-20T09:51:52.003Z,75.8
2018-03-20T09:52:52.729Z,73.3
2018-03-20T09:53:53.466Z,72.5
2018-03-20T09:54:54.253Z,73.4
2018-03-20T09:55:54.980Z,73.8
2018-03-20T09:56:55.709Z,73.2
2018-03-20T09:57:56.447Z,73.4
2018-03-20T09:58:57.225Z,74.4
2018-03-20T09:59:57.961Z,74.2
2018-03-20T10:00:58.762Z,74.4
2018-03-20T10:01:59.496Z,73.2
2018-03-20T10:03:00.224Z,72.2
2018-03-20T10:04:01.015Z,72.4
2018-03-20T10:05:01.808Z,71.9
2018-03-20T10:06:02.613Z,72.5
2018-03-20T10:07:03.389Z,71.9
2018-03-20T10:08:04.080Z,71.1
2018-03-20T10:09:04.816Z,70.3
2018-03-20T10:10:05.551Z,71.8
2018-03-20T10:11:06.275Z,72.1
2018-03-20T10:12:07.017Z,72.6
2018-03-20T10:13:07.776Z,72.8
2018-03-20T10:14:08.547Z,73.2
2018-03-20T10:15:09.283Z,73.8
2018-03-20T10:16:10.013Z,72.8
2018-03-20T10:17:10.738Z,71.1
2018-03-20T10:18:11.470Z,72.3
2018-03-20T10:19:12.210Z,74.0
2018-03-20T10:20:13.016Z,75.0
2018-03-20T10:21:13.719Z,73.5
2018-03-20T10:22:14.450Z,73.1
2018-03-20T10:23:15.224Z,72.7
2018-03-20T10:24:15.952Z,73.1
2018-03-20T10:25:16.684Z,73.3
2018-03-20T10:26:17.410Z,72.6
2018-03-20T10:27:18.153Z,72.2
2018-03-20T10:28:18.888Z,71.1
2018-03-20T10:29:19.664Z,71.2
2018-03-20T10:30:20.396Z,72.1
2018-03-20T10:31:21.140Z,70.1
2018-03-20T10:32:21.911Z,68.5
2018-03-20T10:33:22.640Z,68.7
2018-03-20T10:34:23.371Z,68.1
2018-03-20T10:35:24.211Z,66.8
2018-03-20T10:36:24.910Z,65.2
2018-03-20T10:37:25.640Z,63.8
2018-03-20T10:38:26.385Z,65.8
2018-03-20T10:39:27.112Z,66.1
2018-03-20T10:40:27.850Z,65.8
2018-03-20T10:41:28.632Z,65.7
2018-03-20T10:42:29.397Z,63.4
2018-03-20T10:43:30.134Z,62.8
2018-03-20T10:44:30.881Z,64.3
2018-03-20T10:45:31.629Z,65.4
2018-03-20T10:46:32.353Z,63.2
2018-03-20T10:47:33.084Z,63.3
2018-03-20T10:48:33.877Z,63.6
2018-03-20T10:49:34.675Z,64.2
2018-03-20T10:50:35.493Z,64.0
2018-03-20T10:51:36.229Z,64.0
2018-03-20T10:52:36.962Z,62.7
2018-03-20T10:53:37.695Z,62.3
2018-03-20T10:54:38.449Z,62.7
2018-03-20T10:55:39.240Z,62.4
2018-03-20T10:56:39.985Z,63.2
2018-03-20T10:57:40.729Z,63.7
2018-03-20T10:58:41.460Z,63.1
2018-03-20T10:59:42.185Z,62.1
2018-03-20T11:00:42.918Z,62.7
2018-03-20T11:01:43.711Z,60.9
2018-03-20T11:02:44.440Z,59.6
2018-03-20T11:03:45.181Z,61.5
2018-03-20T11:04:45.906Z,61.4
2018-03-20T11:05:46.663Z,60.6
2018-03-20T11:06:47.394Z,61.9
2018-03-20T11:07:48.270Z,63.2
2018-03-20T11:08:49.041Z,62.8
2018-03-20T11:09:49.784Z,64.0
2018-03-20T11:10:50.523Z,63.8
2018-03-20T11:11:51.268Z,63.4
2018-03-20T11:12:52.104Z,62.2
2018-03-20T11:13:52.840Z,62.7
2018-03-20T11:14:53.625Z,63.5
2018-03-20T11:15:54.406Z,62.8
2018-03-20T11:16:55.147Z,64.8
2018-03-20T11:17:55.885Z,64.6
2018-03-20T11:18:57.219Z,63.8
2018-03-20T11:19:57.893Z,62.5
2018-03-20T11:20:58.692Z,62.1
2018-03-20T11:21:59.425Z,61.3
2018-03-20T11:23:00.143Z,59.9
2018-03-20T11:24:01.007Z,58.4
2018-03-20T11:25:01.719Z,59.0
2018-03-20T11:26:02.467Z,58.6
2018-03-20T11:27:03.266Z,58.8
2018-03-20T11:28:04.082Z,58.5
2018-03-20T11:29:04.980Z,58.9
2018-03-20T11:30:06.406Z,57.2
2018-03-20T11:31:07.267Z,57.3
2018-03-20T11:32:08.013Z,58.8
2018-03-20T11:33:08.742Z,55.6
2018-03-20T11:34:09.563Z,55.8
2018-03-20T11:35:10.354Z,54.4
2018-03-20T11:36:11.040Z,54.1
2018-03-20T11:37:11.777Z,55.2
2018-03-20T11:38:12.509Z,55.0
2018-03-20T11:39:13.240Z,55.0
2018-03-20T11:40:13.971Z,53.9
2018-03-20T11:41:14.713Z,54.6
2018-03-20T11:42:15.461Z,55.6
2018-03-20T11:43:16.265Z,54.6
2018-03-20T11:44:16.988Z,54.7
2018-03-20T11:45:17.705Z,53.0
2018-03-20T11:46:18.432Z,53.9
2018-03-20T11:47:19.162Z,55.8
2018-03-20T11:48:19.942Z,56.6
2018-03-20T11:49:20.664Z,57.4
2018-03-20T11:50:21.422Z,56.5
2018-03-20T11:51:22.175Z,57.2
2018-03-20T11:52:22.965Z,57.6
2018-03-20T11:53:23.695Z,57.7
2018-03-20T11:54:24.439Z,57.2
2018-03-20T11:55:25.194Z,56.6
2018-03-20T11:56:25.939Z,55.8
2018-03-20T11:57:26.680Z,56.0
2018-03-20T11:58:27.410Z,56.3
2018-03-20T11:59:28.143Z,57.0
2018-03-20T12:00:28.889Z,57.8
2018-03-20T12:01:29.638Z,56.5
2018-03-20T12:02:30.377Z,56.7
2018-03-20T12:03:31.127Z,57.3
2018-03-20T12:04:31.925Z,56.3
2018-03-20T12:05:32.665Z,56.2
2018-03-20T12:06:33.400Z,55.5
2018-03-20T12:07:34.139Z,54.3
2018-03-20T12:08:34.930Z,53.3
2018-03-20T12:09:35.674Z,52.4
2018-03-20T12:10:36.402Z,52.8
2018-03-20T12:11:37.143Z,53.9
2018-03-20T12:12:37.883Z,54.3
2018-03-20T12:13:38.610Z,53.3
2018-03-20T12:14:39.331Z,54.0
2018-03-20T12:15:40.127Z,54.7
2018-03-20T12:16:40.867Z,54.5
2018-03-20T12:17:41.622Z,52.5
2018-03-20T12:18:42.365Z,53.4
2018-03-20T12:19:43.113Z,52.0
2018-03-20T12:20:43.866Z,52.4
2018-03-20T12:21:44.627Z,52.6
2018-03-20T12:22:45.429Z,52.0
2018-03-20T12:23:46.160Z,50.7
2018-03-20T12:24:46.891Z,51.2
2018-03-20T12:25:47.625Z,52.0
2018-03-20T12:26:48.400Z,52.6
2018-03-20T12:27:49.134Z,50.7
2018-03-20T12:28:49.862Z,50.8
2018-03-20T12:29:50.615Z,50.8
2018-03-20T12:30:51.387Z,50.1
2018-03-20T12:31:52.149Z,49.3
2018-03-20T12:32:52.872Z,49.5
2018-03-20T12:33:53.732Z,49.8
2018-03-20T12:34:54.472Z,50.0
2018-03-20T12:35:55.281Z,50.6
2018-03-20T12:36:56.000Z,51.8
2018-03-20T12:37:56.733Z,50.4
2018-03-20T12:38:57.460Z,49.6
2018-03-20T12:39:58.202Z,48.8
2018-03-20T12:40:58.931Z,48.2
2018-03-20T12:41:59.673Z,49.5
2018-03-20T12:43:00.410Z,49.5
2018-03-20T12:44:01.184Z,48.9
2018-03-20T12:45:01.919Z,47.9
2018-03-20T12:46:02.665Z,46.8
2018-03-20T12:47:03.420Z,46.3
2018-03-20T12:48:04.146Z,46.5
2018-03-20T12:49:04.883Z,46.9
2018-03-20T12:50:05.622Z,47.8
2018-03-20T12:51:06.340Z,47.5
2018-03-20T12:52:07.070Z,47.0
2018-03-20T12:53:07.795Z,47.2
2018-03-20T12:54:08.560Z,48.1
2018-03-20T12:55:09.284Z,48.3
2018-03-20T12:56:10.100Z,47.1
2018-03-20T12:57:10.832Z,45.9
2018-03-20T12:58:11.687Z,45.5
2018-03-20T12:59:12.434Z,45.2
2018-03-20T13:00:13.179Z,46.8
2018-03-20T13:01:13.916Z,48.1
2018-03-20T13:02:14.710Z,49.9
2018-03-20T13:03:15.449Z,51.1
2018-03-20T13:04:16.201Z,50.2
2018-03-20T13:05:16.966Z,49.4
2018-03-20T13:06:17.783Z,49.8
2018-03-20T13:07:18.524Z,50.5
2018-03-20T13:08:19.265Z,49.4
2018-03-20T13:09:20.066Z,48.6
2018-03-20T13:10:20.789Z,49.3
2018-03-20T13:11:21.530Z,49.9
2018-03-20T13:12:22.265Z,50.8
2018-03-20T13:13:23.072Z,51.5
2018-03-20T13:14:23.853Z,52.2
2018-03-20T13:15:24.603Z,52.7
2018-03-20T13:16:25.341Z,52.8